createdAt,value
2019-05-18T00:00:49.358Z,0.00
2019-05-18T00:02:42.261Z,0.00
2019-05-18T00:03:42.261Z,0.00
2019-05-18T00:05:35.164Z,0.00
2019-05-18T00:06:35.176Z,0.00
2019-05-18T00:08:28.086Z,0.00
2019-05-18T00:09:28.092Z,0.00
2019-05-18T00:11:21.005Z,0.00
2019-05-18T00:12:21.023Z,0.00
2019-05-18T00:14:13.917Z,0.00
2019-05-18T00:15:13.928Z,0.00
2019-05-18T00:17:12.851Z,0.00
2019-05-18T00:18:07.336Z,0.00
2019-05-18T00:20:00.242Z,0.00
2019-05-18T00:21:00.251Z,0.00
2019-05-18T00:22:53.165Z,0.00
2019-05-18T00:23:53.201Z,0.00
2019-05-18T00:25:46.077Z,0.00
2019-05-18T00:26:46.082Z,0.00
2019-05-18T00:28:38.990Z,0.00
2019-05-18T00:29:39.000Z,0.00
2019-05-18T00:31:31.919Z,0.00
2019-05-18T00:32:31.915Z,0.00
2019-05-18T00:34:24.821Z,0.00
2019-05-18T00:35:24.832Z,0.00
2019-05-18T00:37:18.785Z,0.00
2019-05-18T00:38:18.740Z,0.00
2019-05-18T00:40:11.655Z,0.00
2019-05-18T00:41:11.656Z,0.00
2019-05-18T00:43:04.567Z,0.00
2019-05-18T00:44:04.575Z,0.00
2019-05-18T00:45:57.480Z,0.00
2019-05-18T00:46:57.482Z,0.00
2019-05-18T00:48:50.399Z,0.00
2019-05-18T00:49:50.404Z,0.00
2019-05-18T00:51:43.319Z,0.00
2019-05-18T00:52:43.311Z,0.00
2019-05-18T00:54:36.220Z,0.00
2019-05-18T00:55:36.228Z,0.00
2019-05-18T00:57:29.146Z,0.00
2019-05-18T00:58:29.152Z,0.00
2019-05-18T01:00:22.121Z,0.00
2019-05-18T01:01:22.079Z,0.00
2019-05-18T01:03:15.567Z,0.00
2019-05-18T01:04:15.495Z,0.00
2019-05-18T01:06:08.447Z,0.00
2019-05-18T01:07:08.406Z,0.00
2019-05-18T01:09:01.333Z,0.00
2019-05-18T01:10:01.321Z,0.00
2019-05-18T01:11:54.230Z,0.00
2019-05-18T01:12:54.233Z,0.00
2019-05-18T01:14:47.143Z,0.00
2019-05-18T01:15:47.150Z,0.00
2019-05-18T01:17:40.062Z,0.00
2019-05-18T01:18:40.067Z,0.00
2019-05-18T01:20:33.474Z,0.00
2019-05-18T01:21:33.476Z,0.00
2019-05-18T01:23:26.386Z,0.00
2019-05-18T01:24:26.395Z,0.00
2019-05-18T01:26:19.302Z,0.00
2019-05-18T01:27:19.303Z,0.00
2019-05-18T01:29:12.213Z,0.00
2019-05-18T01:30:12.221Z,0.00
2019-05-18T01:32:05.131Z,0.00
2019-05-18T01:33:05.136Z,0.00
2019-05-18T01:34:58.041Z,0.00
2019-05-18T01:35:58.052Z,0.00
2019-05-18T01:37:50.963Z,0.00
2019-05-18T01:38:50.965Z,0.00
2019-05-18T01:40:43.872Z,0.00
2019-05-18T01:41:43.883Z,0.00
2019-05-18T01:43:36.789Z,0.00
2019-05-18T01:44:36.792Z,0.00
2019-05-18T01:46:29.705Z,0.00
2019-05-18T01:47:29.706Z,0.00
2019-05-18T01:49:22.613Z,0.00
2019-05-18T01:50:22.620Z,0.00
2019-05-18T01:52:16.024Z,0.00
2019-05-18T01:53:16.030Z,0.00
2019-05-18T01:55:08.937Z,0.00
2019-05-18T01:56:08.945Z,0.00
2019-05-18T01:58:01.860Z,0.00
2019-05-18T01:59:01.858Z,0.00
2019-05-18T02:00:55.258Z,0.00
2019-05-18T02:01:55.268Z,0.00
2019-05-18T02:03:48.179Z,0.00
2019-05-18T02:04:48.181Z,0.00
2019-05-18T02:06:41.091Z,0.00
2019-05-18T02:07:41.095Z,0.00
2019-05-18T02:09:34.005Z,0.00
2019-05-18T02:10:34.013Z,0.00
2019-05-18T02:12:26.930Z,0.00
2019-05-18T02:13:26.931Z,0.00
2019-05-18T02:15:19.831Z,0.00
2019-05-18T02:16:19.840Z,0.00
2019-05-18T02:18:14.160Z,0.00
2019-05-18T02:19:12.756Z,0.00
2019-05-18T02:21:05.663Z,0.00
2019-05-18T02:22:05.667Z,0.00
2019-05-18T02:23:58.575Z,0.00
2019-05-18T02:24:58.580Z,0.00
2019-05-18T02:26:51.984Z,0.00
2019-05-18T02:27:51.989Z,0.00
2019-05-18T02:29:44.894Z,0.00
2019-05-18T02:30:44.902Z,0.00
2019-05-18T02:32:37.813Z,0.00
2019-05-18T02:33:37.828Z,0.00
2019-05-18T02:35:30.731Z,0.00
2019-05-18T02:36:30.732Z,0.00
2019-05-18T02:38:23.644Z,0.00
2019-05-18T02:39:23.648Z,0.00
2019-05-18T02:41:16.554Z,0.00
2019-05-18T02:42:16.562Z,0.00
2019-05-18T02:44:09.473Z,0.00
2019-05-18T02:45:09.479Z,0.00
2019-05-18T02:47:02.428Z,0.00
2019-05-18T02:48:02.389Z,0.00
2019-05-18T02:49:55.303Z,4.00
2019-05-18T02:50:55.303Z,4.00
2019-05-18T02:52:48.233Z,0.00
2019-05-18T02:53:48.224Z,4.00
2019-05-18T02:55:41.623Z,4.00
2019-05-18T02:56:41.626Z,8.00
2019-05-18T02:58:34.533Z,8.00
2019-05-18T02:59:34.536Z,8.00
2019-05-18T03:01:27.935Z,8.00
2019-05-18T03:02:27.946Z,12.00
2019-05-18T03:04:20.858Z,16.00
2019-05-18T03:05:20.868Z,16.00
2019-05-18T03:07:13.775Z,20.00
2019-05-18T03:08:13.774Z,24.00
2019-05-18T03:10:06.679Z,32.00
2019-05-18T03:11:06.688Z,36.00
2019-05-18T03:12:59.598Z,44.00
2019-05-18T03:13:59.603Z,52.00
2019-05-18T03:15:52.508Z,64.00
2019-05-18T03:16:52.521Z,72.00
2019-05-18T03:18:45.509Z,84.00
2019-05-18T03:19:45.431Z,96.00
2019-05-18T03:21:38.357Z,116.00
2019-05-18T03:22:38.340Z,128.00
2019-05-18T03:24:31.251Z,152.00
2019-05-18T03:25:31.254Z,164.00
2019-05-18T03:27:24.165Z,192.00
2019-05-18T03:28:24.172Z,208.00
2019-05-18T03:30:17.074Z,240.00
2019-05-18T03:31:17.082Z,260.00
2019-05-18T03:33:10.113Z,300.00
2019-05-18T03:34:09.993Z,320.00
2019-05-18T03:36:02.897Z,364.00
2019-05-18T03:37:02.909Z,388.00
2019-05-18T03:38:55.814Z,436.00
2019-05-18T03:39:55.820Z,460.00
2019-05-18T03:41:48.729Z,520.00
2019-05-18T03:42:48.741Z,548.00
2019-05-18T03:44:41.638Z,608.00
2019-05-18T03:45:41.643Z,640.00
2019-05-18T03:47:34.556Z,700.00
2019-05-18T03:48:34.559Z,740.00
2019-05-18T03:50:27.466Z,812.00
2019-05-18T03:51:27.475Z,856.00
2019-05-18T03:53:20.383Z,932.00
2019-05-18T03:54:20.382Z,980.00
2019-05-18T03:56:13.289Z,1072.00
2019-05-18T03:57:13.298Z,1132.00
2019-05-18T03:59:06.222Z,1240.00
2019-05-18T04:00:06.217Z,1300.00
2019-05-18T04:01:59.121Z,1408.00
2019-05-18T04:02:59.129Z,1404.00
2019-05-18T04:04:52.030Z,1452.00
2019-05-18T04:05:52.039Z,1492.00
2019-05-18T04:07:44.952Z,1716.00
2019-05-18T04:08:44.953Z,1588.00
2019-05-18T04:10:37.862Z,1724.00
2019-05-18T04:11:37.878Z,1912.00
2019-05-18T04:13:30.772Z,2280.00
2019-05-18T04:14:30.782Z,2416.00
2019-05-18T04:16:23.699Z,2684.00
2019-05-18T04:17:23.792Z,2776.00
2019-05-18T04:19:16.602Z,2968.00
2019-05-18T04:20:16.609Z,3120.00
2019-05-18T04:22:09.532Z,3368.00
2019-05-18T04:23:09.530Z,3464.00
2019-05-18T04:25:02.436Z,3676.00
2019-05-18T04:26:02.446Z,3624.00
2019-05-18T04:27:55.376Z,4004.00
2019-05-18T04:28:55.364Z,4108.00
2019-05-18T04:30:48.272Z,4332.00
2019-05-18T04:31:48.316Z,4456.00
2019-05-18T04:33:41.201Z,4680.00
2019-05-18T04:34:41.305Z,4808.00
2019-05-18T04:36:34.117Z,5084.00
2019-05-18T04:37:34.127Z,5236.00
2019-05-18T04:39:27.039Z,5488.00
2019-05-18T04:40:27.045Z,5616.00
2019-05-18T04:42:19.969Z,5952.00
2019-05-18T04:43:19.972Z,6152.00
2019-05-18T04:45:12.898Z,6416.00
2019-05-18T04:46:12.897Z,6492.00
2019-05-18T04:48:05.819Z,6700.00
2019-05-18T04:49:05.823Z,6696.00
2019-05-18T04:50:58.736Z,6744.00
2019-05-18T04:51:58.749Z,6888.00
2019-05-18T04:53:51.670Z,7032.00
2019-05-18T04:54:51.676Z,7120.00
2019-05-18T04:56:44.598Z,7288.00
2019-05-18T04:57:44.602Z,7360.00
2019-05-18T04:59:37.515Z,7540.00
2019-05-18T05:00:37.530Z,7624.00
2019-05-18T05:02:30.451Z,7816.00
2019-05-18T05:03:30.460Z,8004.00
2019-05-18T05:05:23.373Z,8404.00
2019-05-18T05:06:23.389Z,8652.00
2019-05-18T05:08:16.310Z,9016.00
2019-05-18T05:09:16.319Z,9044.00
2019-05-18T05:11:09.251Z,9084.00
2019-05-18T05:12:09.248Z,9112.00
2019-05-18T05:14:02.723Z,9448.00
2019-05-18T05:15:02.678Z,9660.00
2019-05-18T05:16:55.601Z,10016.00
2019-05-18T05:17:55.611Z,10212.00
2019-05-18T05:19:48.526Z,9136.00
2019-05-18T05:20:48.541Z,7604.00
2019-05-18T05:22:41.476Z,11404.00
2019-05-18T05:23:41.475Z,11576.00
2019-05-18T05:25:34.394Z,9556.00
2019-05-18T05:26:34.410Z,10496.00
2019-05-18T05:28:27.345Z,8400.00
2019-05-18T05:29:27.359Z,10172.00
2019-05-18T05:31:20.767Z,10528.00
2019-05-18T05:32:20.788Z,9436.00
2019-05-18T05:34:13.721Z,11548.00
2019-05-18T05:35:13.721Z,11604.00
2019-05-18T05:37:06.643Z,11684.00
2019-05-18T05:38:06.654Z,11748.00
2019-05-18T05:39:59.581Z,12036.00
2019-05-18T05:40:59.607Z,12172.00
2019-05-18T05:42:52.511Z,12800.00
2019-05-18T05:43:52.521Z,13388.00
2019-05-18T05:45:45.437Z,16864.00
2019-05-18T05:46:45.454Z,19872.00
2019-05-18T05:48:38.379Z,23008.00
2019-05-18T05:49:38.394Z,22560.00
2019-05-18T05:51:31.309Z,24672.00
2019-05-18T05:52:31.327Z,24448.00
2019-05-18T05:54:24.255Z,22368.00
2019-05-18T05:55:24.271Z,25408.00
2019-05-18T05:57:17.192Z,27936.00
2019-05-18T05:58:17.299Z,29088.00
2019-05-18T06:00:10.141Z,30016.00
2019-05-18T06:01:10.147Z,28960.00
2019-05-18T06:03:03.074Z,29952.00
2019-05-18T06:04:03.089Z,31168.00
2019-05-18T06:05:56.018Z,30368.00
2019-05-18T06:06:56.039Z,31136.00
2019-05-18T06:08:48.965Z,31072.00
2019-05-18T06:09:48.979Z,30560.00
2019-05-18T06:11:41.907Z,28960.00
2019-05-18T06:12:41.919Z,28576.00
2019-05-18T06:14:34.848Z,29664.00
2019-05-18T06:15:34.904Z,28640.00
2019-05-18T06:17:27.788Z,30784.00
2019-05-18T06:18:27.810Z,30304.00
2019-05-18T06:20:20.749Z,33152.00
2019-05-18T06:21:20.763Z,33088.00
2019-05-18T06:23:13.686Z,33792.00
2019-05-18T06:24:13.701Z,33312.00
2019-05-18T06:26:06.639Z,33760.00
2019-05-18T06:27:06.672Z,34336.00
2019-05-18T06:28:59.575Z,35936.00
2019-05-18T06:29:59.590Z,37408.00
2019-05-18T06:31:52.517Z,37728.00
2019-05-18T06:32:52.546Z,37184.00
2019-05-18T06:34:45.475Z,38656.00
2019-05-18T06:35:45.492Z,39904.00
2019-05-18T06:37:38.419Z,42336.00
2019-05-18T06:38:38.441Z,40064.00
2019-05-18T06:40:31.371Z,41216.00
2019-05-18T06:41:31.384Z,42016.00
2019-05-18T06:43:24.339Z,42720.00
2019-05-18T06:44:24.343Z,41952.00
2019-05-18T06:46:17.265Z,43968.00
2019-05-18T06:47:17.286Z,42240.00
2019-05-18T06:49:10.230Z,37888.00
2019-05-18T06:50:12.235Z,40672.00
2019-05-18T06:52:03.169Z,40192.00
2019-05-18T06:53:03.214Z,40896.00
2019-05-18T06:54:56.125Z,43904.00
2019-05-18T06:55:56.141Z,40256.00
2019-05-18T06:57:49.567Z,43456.00
2019-05-18T06:58:49.586Z,45120.00
2019-05-18T07:00:42.524Z,46720.00
2019-05-18T07:01:42.545Z,45152.00
2019-05-18T07:03:35.471Z,45568.00
2019-05-18T07:04:35.494Z,46752.00
2019-05-18T07:06:28.426Z,49600.00
2019-05-18T07:07:28.439Z,49728.00
2019-05-18T07:09:22.194Z,47136.00
2019-05-18T07:10:21.894Z,45440.00
2019-05-18T07:12:14.829Z,13332.00
2019-05-18T07:13:14.856Z,8936.00
2019-05-18T07:15:07.788Z,8328.00
2019-05-18T07:16:07.807Z,8312.00
2019-05-18T07:18:00.897Z,8296.00
2019-05-18T07:19:00.790Z,8296.00
2019-05-18T07:20:53.727Z,8308.00
2019-05-18T07:21:53.743Z,8300.00
2019-05-18T07:23:46.669Z,8236.00
2019-05-18T07:24:46.689Z,8176.00
2019-05-18T07:26:39.637Z,8104.00
2019-05-18T07:27:39.652Z,8140.00
2019-05-18T07:29:32.583Z,8172.00
2019-05-18T07:30:32.592Z,8140.00
2019-05-18T07:32:25.526Z,8096.00
2019-05-18T07:33:25.548Z,8176.00
2019-05-18T07:35:18.479Z,8248.00
2019-05-18T07:36:18.497Z,8272.00
2019-05-18T07:38:11.441Z,8224.00
2019-05-18T07:39:11.443Z,8176.00
2019-05-18T07:41:04.354Z,8064.00
2019-05-18T07:42:04.369Z,8044.00
2019-05-18T07:43:57.305Z,8088.00
2019-05-18T07:44:57.363Z,8072.00
2019-05-18T07:46:50.255Z,7988.00
2019-05-18T07:47:50.273Z,7996.00
2019-05-18T07:49:43.192Z,8212.00
2019-05-18T07:50:43.209Z,8292.00
2019-05-18T07:52:36.128Z,8236.00
2019-05-18T07:53:36.139Z,8296.00
2019-05-18T07:55:29.067Z,8648.00
2019-05-18T07:56:29.076Z,8672.00
2019-05-18T07:58:22.030Z,8572.00
2019-05-18T07:59:22.014Z,8516.00
2019-05-18T08:01:14.961Z,8332.00
2019-05-18T08:02:14.952Z,8320.00
2019-05-18T08:04:07.872Z,8452.00
2019-05-18T08:05:07.889Z,8516.00
2019-05-18T08:07:00.830Z,8424.00
2019-05-18T08:08:00.824Z,8304.00
2019-05-18T08:09:53.747Z,8120.00
2019-05-18T08:10:53.761Z,8104.00
2019-05-18T08:12:46.692Z,7972.00
2019-05-18T08:13:46.702Z,7872.00
2019-05-18T08:15:39.632Z,7964.00
2019-05-18T08:16:39.642Z,8120.00
2019-05-18T08:18:32.566Z,8456.00
2019-05-18T08:19:32.581Z,8600.00
2019-05-18T08:21:25.505Z,8624.00
2019-05-18T08:22:25.517Z,8784.00
2019-05-18T08:24:18.437Z,9176.00
2019-05-18T08:25:18.454Z,9392.00
2019-05-18T08:27:11.380Z,9840.00
2019-05-18T08:28:11.399Z,10180.00
2019-05-18T08:30:04.313Z,10492.00
2019-05-18T08:31:04.331Z,10572.00
2019-05-18T08:32:57.256Z,10556.00
2019-05-18T08:33:57.267Z,10496.00
2019-05-18T08:35:50.196Z,10372.00
2019-05-18T08:36:50.208Z,10300.00
2019-05-18T08:38:43.131Z,10144.00
2019-05-18T08:39:43.149Z,10088.00
2019-05-18T08:41:36.073Z,9888.00
2019-05-18T08:42:36.084Z,9796.00
2019-05-18T08:44:29.005Z,9644.00
2019-05-18T08:45:29.024Z,9576.00
2019-05-18T08:47:22.099Z,9648.00
2019-05-18T08:48:22.110Z,9712.00
2019-05-18T08:50:15.034Z,9728.00
2019-05-18T08:51:15.050Z,9760.00
2019-05-18T08:53:07.984Z,9880.00
2019-05-18T08:54:07.991Z,10052.00
2019-05-18T08:56:00.918Z,10120.00
2019-05-18T08:57:00.965Z,10036.00
2019-05-18T08:58:53.849Z,9968.00
2019-05-18T08:59:53.870Z,9852.00
2019-05-18T09:01:46.796Z,9660.00
2019-05-18T09:02:46.804Z,9612.00
2019-05-18T09:04:39.724Z,9488.00
2019-05-18T09:05:39.740Z,9584.00
2019-05-18T09:07:32.669Z,9756.00
2019-05-18T09:08:32.684Z,9880.00
2019-05-18T09:10:25.600Z,10028.00
2019-05-18T09:11:25.621Z,10056.00
2019-05-18T09:13:18.756Z,9848.00
2019-05-18T09:14:18.562Z,9644.00
2019-05-18T09:16:11.481Z,9440.00
2019-05-18T09:17:11.496Z,9192.00
2019-05-18T09:19:04.427Z,8864.00
2019-05-18T09:20:04.435Z,8704.00
2019-05-18T09:21:57.370Z,8488.00
2019-05-18T09:22:57.382Z,8372.00
2019-05-18T09:24:50.305Z,8176.00
2019-05-18T09:25:50.322Z,8108.00
2019-05-18T09:27:43.249Z,7944.00
2019-05-18T09:28:43.263Z,7852.00
2019-05-18T09:30:36.185Z,7656.00
2019-05-18T09:31:36.211Z,7520.00
2019-05-18T09:33:29.134Z,7296.00
2019-05-18T09:34:29.147Z,7164.00
2019-05-18T09:36:22.078Z,6924.00
2019-05-18T09:37:22.084Z,6824.00
2019-05-18T09:39:15.014Z,6672.00
2019-05-18T09:40:15.035Z,6604.00
2019-05-18T09:42:07.960Z,6460.00
2019-05-18T09:43:07.972Z,6416.00
2019-05-18T09:45:00.897Z,6392.00
2019-05-18T09:46:00.912Z,6348.00
2019-05-18T09:47:53.841Z,6268.00
2019-05-18T09:48:53.853Z,6248.00
2019-05-18T09:50:46.808Z,6172.00
2019-05-18T09:51:46.796Z,6112.00
2019-05-18T09:53:50.738Z,6004.00
2019-05-18T09:54:39.738Z,5956.00
2019-05-18T09:56:32.664Z,5896.00
2019-05-18T09:57:32.677Z,5836.00
2019-05-18T09:59:25.611Z,5712.00
2019-05-18T10:00:25.621Z,5592.00
2019-05-18T10:02:18.549Z,5424.00
2019-05-18T10:03:18.565Z,5372.00
2019-05-18T10:05:11.524Z,5280.00
2019-05-18T10:06:11.551Z,5200.00
2019-05-18T10:08:04.436Z,5144.00
2019-05-18T10:09:04.450Z,5448.00
2019-05-18T10:10:57.371Z,6032.00
2019-05-18T10:11:57.389Z,6296.00
2019-05-18T10:13:50.321Z,6428.00
2019-05-18T10:14:50.345Z,6096.00
2019-05-18T10:16:43.260Z,5508.00
2019-05-18T10:17:43.272Z,5320.00
2019-05-18T10:19:36.196Z,5144.00
2019-05-18T10:20:36.215Z,5020.00
2019-05-18T10:22:29.167Z,4688.00
2019-05-18T10:23:29.169Z,4772.00
2019-05-18T10:25:22.077Z,5400.00
2019-05-18T10:26:22.095Z,5332.00
2019-05-18T10:28:15.023Z,5424.00
2019-05-18T10:29:15.036Z,5452.00
2019-05-18T10:31:07.964Z,5448.00
2019-05-18T10:32:07.986Z,5288.00
2019-05-18T10:34:00.922Z,5292.00
2019-05-18T10:35:00.922Z,5576.00
2019-05-18T10:36:54.411Z,5904.00
2019-05-18T10:37:54.359Z,6016.00
2019-05-18T10:39:47.295Z,6784.00
2019-05-18T10:40:47.302Z,7232.00
2019-05-18T10:42:40.348Z,8196.00
2019-05-18T10:43:40.285Z,8588.00
2019-05-18T10:45:33.167Z,8624.00
2019-05-18T10:46:33.186Z,8440.00
2019-05-18T10:48:26.117Z,8928.00
2019-05-18T10:49:26.126Z,8832.00
2019-05-18T10:51:19.054Z,8272.00
2019-05-18T10:52:19.080Z,8040.00
2019-05-18T10:54:12.007Z,7788.00
2019-05-18T10:55:12.018Z,8064.00
2019-05-18T10:57:04.951Z,8144.00
2019-05-18T10:58:04.963Z,8112.00
2019-05-18T10:59:57.891Z,8168.00
2019-05-18T11:00:57.907Z,8332.00
2019-05-18T11:02:50.841Z,9068.00
2019-05-18T11:03:50.851Z,9660.00
2019-05-18T11:05:43.778Z,9312.00
2019-05-18T11:06:43.804Z,9064.00
2019-05-18T11:08:38.503Z,8012.00
2019-05-18T11:09:36.742Z,7540.00
2019-05-18T11:11:29.673Z,7488.00
2019-05-18T11:12:29.691Z,7412.00
2019-05-18T11:14:23.123Z,7020.00
2019-05-18T11:15:23.163Z,7124.00
2019-05-18T11:17:16.127Z,6612.00
2019-05-18T11:18:16.117Z,6344.00
2019-05-18T11:20:09.008Z,6532.00
2019-05-18T11:21:09.025Z,7008.00
2019-05-18T11:23:01.964Z,7232.00
2019-05-18T11:24:01.979Z,7264.00
2019-05-18T11:25:54.906Z,7292.00
2019-05-18T11:26:54.924Z,7196.00
2019-05-18T11:28:47.857Z,7620.00
2019-05-18T11:29:47.873Z,7460.00
2019-05-18T11:31:40.797Z,7284.00
2019-05-18T11:32:40.871Z,7452.00
2019-05-18T11:34:33.824Z,7808.00
2019-05-18T11:35:33.763Z,7964.00
2019-05-18T11:37:26.699Z,8744.00
2019-05-18T11:38:26.714Z,9052.00
2019-05-18T11:40:19.646Z,9052.00
2019-05-18T11:41:19.664Z,9464.00
2019-05-18T11:43:12.606Z,9396.00
2019-05-18T11:44:12.621Z,9388.00
2019-05-18T11:46:06.544Z,9552.00
2019-05-18T11:47:06.562Z,9728.00
2019-05-18T11:48:59.990Z,9852.00
2019-05-18T11:50:00.011Z,9732.00
2019-05-18T11:51:52.935Z,9000.00
2019-05-18T11:52:52.960Z,8736.00
2019-05-18T11:54:45.921Z,8412.00
2019-05-18T11:55:45.938Z,8180.00
2019-05-18T11:57:38.872Z,7400.00
2019-05-18T11:58:38.884Z,6976.00
2019-05-18T12:00:31.811Z,6424.00
2019-05-18T12:01:31.833Z,6148.00
2019-05-18T12:03:24.767Z,5960.00
2019-05-18T12:04:24.784Z,5928.00
2019-05-18T12:06:17.708Z,5748.00
2019-05-18T12:07:17.736Z,5492.00
2019-05-18T12:09:10.661Z,5356.00
2019-05-18T12:10:10.678Z,5308.00
2019-05-18T12:12:04.099Z,5148.00
2019-05-18T12:13:04.123Z,5276.00
2019-05-18T12:14:57.055Z,5596.00
2019-05-18T12:15:57.065Z,5516.00
2019-05-18T12:17:49.999Z,5608.00
2019-05-18T12:18:50.013Z,5772.00
2019-05-18T12:20:43.462Z,5468.00
2019-05-18T12:21:43.463Z,5388.00
2019-05-18T12:23:36.391Z,5716.00
2019-05-18T12:24:36.492Z,5836.00
2019-05-18T12:26:29.896Z,5584.00
2019-05-18T12:27:29.347Z,5488.00
2019-05-18T12:29:22.278Z,4984.00
2019-05-18T12:30:22.329Z,4644.00
2019-05-18T12:32:15.275Z,4708.00
2019-05-18T12:33:15.298Z,5052.00
2019-05-18T12:35:08.222Z,5696.00
2019-05-18T12:36:08.237Z,5252.00
2019-05-18T12:38:01.196Z,4964.00
2019-05-18T12:39:01.183Z,4748.00
2019-05-18T12:40:54.604Z,4424.00
2019-05-18T12:41:54.623Z,4364.00
2019-05-18T12:43:47.555Z,4492.00
2019-05-18T12:44:47.565Z,4496.00
2019-05-18T12:46:40.492Z,4492.00
2019-05-18T12:47:40.511Z,4480.00
2019-05-18T12:49:33.441Z,4440.00
2019-05-18T12:50:33.454Z,4408.00
2019-05-18T12:52:26.382Z,4344.00
2019-05-18T12:53:26.398Z,4336.00
2019-05-18T12:55:19.833Z,4392.00
2019-05-18T12:56:19.837Z,4480.00
2019-05-18T12:58:13.266Z,4672.00
2019-05-18T12:59:13.275Z,4832.00
2019-05-18T13:01:06.207Z,5156.00
2019-05-18T13:02:06.222Z,5376.00
2019-05-18T13:03:59.151Z,5724.00
2019-05-18T13:04:59.164Z,5780.00
2019-05-18T13:06:52.089Z,5788.00
2019-05-18T13:07:52.106Z,5836.00
2019-05-18T13:09:45.044Z,5864.00
2019-05-18T13:10:45.056Z,5956.00
2019-05-18T13:12:38.476Z,6216.00
2019-05-18T13:13:38.498Z,6284.00
2019-05-18T13:15:32.426Z,6656.00
2019-05-18T13:16:32.441Z,6920.00
2019-05-18T13:18:26.869Z,7664.00
2019-05-18T13:19:26.884Z,8084.00
2019-05-18T13:21:19.822Z,8780.00
2019-05-18T13:22:19.832Z,9212.00
2019-05-18T13:24:12.771Z,9660.00
2019-05-18T13:25:12.788Z,9688.00
2019-05-18T13:27:05.717Z,9764.00
2019-05-18T13:28:05.732Z,9660.00
2019-05-18T13:29:58.665Z,9568.00
2019-05-18T13:30:58.683Z,9504.00
2019-05-18T13:32:51.617Z,9476.00
2019-05-18T13:33:51.651Z,9324.00
2019-05-18T13:35:45.705Z,9136.00
2019-05-18T13:36:45.085Z,9356.00
2019-05-18T13:38:38.018Z,9572.00
2019-05-18T13:39:38.032Z,9624.00
2019-05-18T13:41:30.982Z,9460.00
2019-05-18T13:42:30.987Z,9328.00
2019-05-18T13:44:23.918Z,9080.00
2019-05-18T13:45:23.943Z,8784.00
2019-05-18T13:47:16.869Z,8488.00
2019-05-18T13:48:16.884Z,8372.00
2019-05-18T13:50:09.817Z,8532.00
2019-05-18T13:51:09.837Z,8848.00
2019-05-18T13:53:03.286Z,8456.00
2019-05-18T13:54:03.287Z,7964.00
2019-05-18T13:55:56.709Z,7180.00
2019-05-18T13:56:56.731Z,6740.00
2019-05-18T13:58:49.666Z,5936.00
2019-05-18T13:59:49.684Z,5512.00
2019-05-18T14:01:42.611Z,5212.00
2019-05-18T14:02:42.633Z,5152.00
2019-05-18T14:04:35.565Z,4876.00
2019-05-18T14:05:35.586Z,4588.00
2019-05-18T14:07:28.515Z,4064.00
2019-05-18T14:08:28.529Z,3876.00
2019-05-18T14:10:21.463Z,3788.00
2019-05-18T14:11:21.481Z,3684.00
2019-05-18T14:13:15.407Z,3952.00
2019-05-18T14:14:15.422Z,4048.00
2019-05-18T14:16:08.348Z,3960.00
2019-05-18T14:17:08.368Z,4140.00
2019-05-18T14:19:01.300Z,4520.00
2019-05-18T14:20:01.314Z,4592.00
2019-05-18T14:21:54.735Z,4516.00
2019-05-18T14:22:54.756Z,4472.00
2019-05-18T14:24:47.693Z,4508.00
2019-05-18T14:25:47.701Z,4456.00
2019-05-18T14:27:40.633Z,4464.00
2019-05-18T14:28:40.650Z,4472.00
2019-05-18T14:30:33.581Z,4568.00
2019-05-18T14:31:33.600Z,4380.00
2019-05-18T14:33:26.547Z,4028.00
2019-05-18T14:34:26.545Z,4004.00
2019-05-18T14:36:19.469Z,4060.00
2019-05-18T14:37:19.488Z,4136.00
2019-05-18T14:39:12.429Z,4220.00
2019-05-18T14:40:12.435Z,4316.00
2019-05-18T14:42:05.360Z,4476.00
2019-05-18T14:43:05.386Z,4512.00
2019-05-18T14:44:58.316Z,4552.00
2019-05-18T14:45:58.329Z,4512.00
2019-05-18T14:47:51.753Z,4392.00
2019-05-18T14:48:51.770Z,4344.00
2019-05-18T14:50:44.787Z,4260.00
2019-05-18T14:51:44.718Z,4280.00
2019-05-18T14:53:38.146Z,4320.00
2019-05-18T14:54:38.160Z,4368.00
2019-05-18T14:56:31.085Z,4944.00
2019-05-18T14:57:31.112Z,5388.00
2019-05-18T14:59:24.039Z,5636.00
2019-05-18T15:00:24.071Z,5592.00
2019-05-18T15:02:16.978Z,5536.00
2019-05-18T15:03:17.022Z,5560.00
2019-05-18T15:05:09.930Z,5720.00
2019-05-18T15:06:09.946Z,5640.00
2019-05-18T15:08:02.875Z,5692.00
2019-05-18T15:09:02.894Z,5556.00
2019-05-18T15:10:55.830Z,5412.00
2019-05-18T15:11:55.841Z,5448.00
2019-05-18T15:13:49.278Z,5676.00
2019-05-18T15:14:49.290Z,5700.00
2019-05-18T15:16:42.718Z,5760.00
2019-05-18T15:17:42.734Z,5828.00
2019-05-18T15:19:35.669Z,6020.00
2019-05-18T15:20:35.706Z,6084.00
2019-05-18T15:22:28.618Z,6008.00
2019-05-18T15:23:28.638Z,5892.00
2019-05-18T15:25:21.576Z,5544.00
2019-05-18T15:26:21.591Z,5596.00
2019-05-18T15:28:14.514Z,5700.00
2019-05-18T15:29:14.537Z,5640.00
2019-05-18T15:31:07.463Z,4980.00
2019-05-18T15:32:07.480Z,4632.00
2019-05-18T15:34:00.416Z,4300.00
2019-05-18T15:35:00.426Z,4276.00
2019-05-18T15:36:53.357Z,4248.00
2019-05-18T15:37:53.373Z,4188.00
2019-05-18T15:39:46.306Z,4036.00
2019-05-18T15:40:46.320Z,3996.00
2019-05-18T15:42:39.241Z,4108.00
2019-05-18T15:43:39.267Z,4032.00
2019-05-18T15:45:32.194Z,3784.00
2019-05-18T15:46:32.207Z,3784.00
2019-05-18T15:48:25.230Z,3792.00
2019-05-18T15:49:25.153Z,3884.00
2019-05-18T15:51:18.081Z,3884.00
2019-05-18T15:52:18.096Z,3876.00
2019-05-18T15:54:11.028Z,3800.00
2019-05-18T15:55:11.057Z,3784.00
2019-05-18T15:57:03.969Z,3760.00
2019-05-18T15:58:04.001Z,3724.00
2019-05-18T15:59:56.921Z,3676.00
2019-05-18T16:00:56.934Z,3648.00
2019-05-18T16:02:49.892Z,3708.00
2019-05-18T16:03:49.881Z,3744.00
2019-05-18T16:05:42.810Z,3900.00
2019-05-18T16:06:42.824Z,4052.00
2019-05-18T16:08:35.753Z,4292.00
2019-05-18T16:09:35.769Z,4280.00
2019-05-18T16:11:28.700Z,4172.00
2019-05-18T16:12:28.726Z,4140.00
2019-05-18T16:14:21.645Z,4040.00
2019-05-18T16:15:21.660Z,3996.00
2019-05-18T16:17:15.080Z,3848.00
2019-05-18T16:18:15.099Z,3768.00
2019-05-18T16:20:08.526Z,3588.00
2019-05-18T16:21:08.535Z,3528.00
2019-05-18T16:23:01.470Z,3512.00
2019-05-18T16:24:01.485Z,3492.00
2019-05-18T16:25:54.416Z,3468.00
2019-05-18T16:26:54.430Z,3480.00
2019-05-18T16:28:47.355Z,3488.00
2019-05-18T16:29:47.375Z,3500.00
2019-05-18T16:31:40.306Z,3548.00
2019-05-18T16:32:40.330Z,3596.00
2019-05-18T16:34:33.259Z,3660.00
2019-05-18T16:35:33.267Z,3664.00
2019-05-18T16:37:26.192Z,3696.00
2019-05-18T16:38:26.210Z,3700.00
2019-05-18T16:40:19.139Z,3740.00
2019-05-18T16:41:19.152Z,3712.00
2019-05-18T16:43:12.075Z,3620.00
2019-05-18T16:44:12.098Z,3592.00
2019-05-18T16:46:05.523Z,3572.00
2019-05-18T16:47:05.532Z,3548.00
2019-05-18T16:48:58.455Z,3508.00
2019-05-18T16:49:58.475Z,3508.00
2019-05-18T16:51:51.477Z,3520.00
2019-05-18T16:52:51.422Z,3508.00
2019-05-18T16:54:44.350Z,3480.00
2019-05-18T16:55:44.507Z,3472.00
2019-05-18T16:57:37.283Z,3548.00
2019-05-18T16:58:37.321Z,3600.00
2019-05-18T17:00:30.760Z,3652.00
2019-05-18T17:01:30.739Z,3684.00
2019-05-18T17:03:23.663Z,3752.00
2019-05-18T17:04:23.681Z,3792.00
2019-05-18T17:06:16.673Z,3796.00
2019-05-18T17:07:16.622Z,3760.00
2019-05-18T17:09:10.042Z,3772.00
2019-05-18T17:10:10.106Z,3776.00
2019-05-18T17:12:03.013Z,3760.00
2019-05-18T17:13:03.004Z,3744.00
2019-05-18T17:14:55.928Z,3760.00
2019-05-18T17:15:55.941Z,3772.00
2019-05-18T17:17:48.866Z,3772.00
2019-05-18T17:18:48.885Z,3764.00
2019-05-18T17:20:41.812Z,3740.00
2019-05-18T17:21:41.825Z,3760.00
2019-05-18T17:23:34.746Z,3776.00
2019-05-18T17:24:34.766Z,3788.00
2019-05-18T17:26:27.693Z,3780.00
2019-05-18T17:27:27.706Z,3796.00
2019-05-18T17:29:21.131Z,3876.00
2019-05-18T17:30:21.143Z,3920.00
2019-05-18T17:32:14.072Z,3984.00
2019-05-18T17:33:14.085Z,4004.00
2019-05-18T17:35:07.020Z,4060.00
2019-05-18T17:36:07.028Z,4084.00
2019-05-18T17:37:59.953Z,4116.00
2019-05-18T17:38:59.975Z,4128.00
2019-05-18T17:40:53.400Z,4148.00
2019-05-18T17:41:53.410Z,4148.00